Wetterstation Vordersexau
Wetterdaten: Woche 06.02.17 - 12.02.17 (KW6)
Datum Zeit Temp. A. Feuchte A. Luftdruck Regen Wind Richtung Taupunkt Windchill Windben
06.02.2017 00:00 3,4 C 84 % 1003,8 hPa 0,5 l/m 0,0 km/h NW 1,0 C 3,4 C 0,0 km/h
06.02.2017 01:00 3,3 C 84 % 1004,8 hPa 1,0 l/m 0,0 km/h NW 0,9 C 3,3 C 0,0 km/h
06.02.2017 02:00 3,2 C 84 % 1005,3 hPa 0,5 l/m 0,0 km/h NW 0,8 C 3,2 C 0,0 km/h
06.02.2017 03:00 3,1 C 84 % 1006,1 hPa 0,0 l/m 0,0 km/h NW 0,7 C 3,1 C 0,0 km/h
06.02.2017 04:00 2,9 C 84 % 1006,6 hPa 0,0 l/m 0,0 km/h NW 0,5 C 2,9 C 0,0 km/h
06.02.2017 05:00 2,8 C 84 % 1007,8 hPa 0,0 l/m 0,0 km/h NW 0,4 C 2,8 C 0,0 km/h
06.02.2017 06:00 2,7 C 84 % 1009,0 hPa 0,0 l/m 0,0 km/h NW 0,3 C 2,7 C 0,0 km/h
06.02.2017 07:00 2,4 C 84 % 1010,0 hPa 0,0 l/m 0,0 km/h NW -0,0 C 2,4 C 0,0 km/h
06.02.2017 08:00 2,2 C 83 % 1011,0 hPa 0,5 l/m 0,0 km/h NW -0,4 C 2,2 C 0,0 km/h
06.02.2017 09:00 3,1 C 83 % 1012,0 hPa 0,0 l/m 0,0 km/h NW 0,5 C 3,1 C 0,0 km/h
06.02.2017 10:00 4,9 C 81 % 1012,7 hPa 0,0 l/m 0,0 km/h NW 1,9 C 4,9 C 0,0 km/h
06.02.2017 11:00 7,3 C 84 % 1013,6 hPa 0,0 l/m 0,0 km/h SW 4,8 C 7,3 C 0,0 km/h
06.02.2017 12:00 11,0 C 75 % 1014,0 hPa 0,0 l/m 0,0 km/h W-SW 6,7 C 11,0 C 0,0 km/h
06.02.2017 13:00 7,9 C 79 % 1014,0 hPa 0,0 l/m 0,0 km/h W 4,5 C 7,9 C 0,0 km/h
06.02.2017 14:00 8,1 C 79 % 1014,0 hPa 0,0 l/m 0,0 km/h N 4,7 C 8,1 C 0,0 km/h
06.02.2017 15:00 9,6 C 71 % 1014,5 hPa 0,0 l/m 0,0 km/h W 4,6 C 9,6 C 0,0 km/h
06.02.2017 16:00 7,0 C 79 % 1015,1 hPa 0,0 l/m 0,0 km/h W 3,6 C 7,0 C 0,0 km/h
06.02.2017 17:00 5,8 C 81 % 1015,5 hPa 0,0 l/m 0,0 km/h W 2,8 C 5,8 C 0,0 km/h
06.02.2017 18:00 4,9 C 84 % 1016,5 hPa 0,0 l/m 0,0 km/h W 2,4 C 4,9 C 0,0 km/h
06.02.2017 19:00 4,7 C 84 % 1016,8 hPa 0,0 l/m 0,0 km/h W 2,2 C 4,7 C 0,0 km/h
06.02.2017 20:00 3,5 C 85 % 1016,8 hPa 0,0 l/m 0,0 km/h W 1,2 C 3,5 C 0,0 km/h
06.02.2017 21:00 1,8 C 86 % 1016,7 hPa 0,0 l/m 0,0 km/h S-SO -0,3 C 1,8 C 0,0 km/h
06.02.2017 22:00 0,5 C 86 % 1016,7 hPa 0,0 l/m 0,0 km/h S-SO -1,6 C 0,5 C 0,0 km/h
06.02.2017 23:00 0,1 C 86 % 1016,7 hPa 0,0 l/m 0,0 km/h S-SO -2,0 C 0,1 C 0,0 km/h
07.02.2017 00:00 0,9 C 86 % 1016,8 hPa 0,0 l/m 0,0 km/h S-SO -1,2 C 0,9 C 0,0 km/h
07.02.2017 01:00 1,5 C 86 % 1016,5 hPa 0,0 l/m 0,0 km/h S-SO -0,6 C 1,5 C 0,0 km/h
07.02.2017 02:00 2,1 C 85 % 1016,2 hPa 0,0 l/m 0,0 km/h SO -0,2 C 2,1 C 0,0 km/h
07.02.2017 03:00 2,4 C 85 % 1015,7 hPa 0,0 l/m 0,0 km/h S-SO 0,1 C 2,4 C 0,0 km/h
07.02.2017 04:00 2,6 C 84 % 1015,5 hPa 0,0 l/m 0,0 km/h SO 0,2 C 2,6 C 0,0 km/h
07.02.2017 05:00 2,4 C 84 % 1015,2 hPa 0,0 l/m 0,0 km/h SO -0,0 C 2,4 C 0,0 km/h
07.02.2017 06:00 2,6 C 84 % 1014,9 hPa 0,0 l/m 0,0 km/h O-SO 0,2 C 2,6 C 0,0 km/h
07.02.2017 07:00 2,1 C 83 % 1014,8 hPa 0,0 l/m 0,0 km/h O-SO -0,5 C 2,1 C 0,0 km/h
07.02.2017 08:00 1,8 C 83 % 1014,4 hPa 0,0 l/m 0,0 km/h O-SO -0,8 C 1,8 C 0,0 km/h
07.02.2017 09:00 2,6 C 84 % 1014,4 hPa 0,0 l/m 1,3 km/h SO 0,2 C 2,6 C 0,7 km/h
07.02.2017 10:00 4,5 C 86 % 1014,4 hPa 0,0 l/m 0,0 km/h SO 2,4 C 4,5 C 0,0 km/h
07.02.2017 11:00 10,1 C 82 % 1014,2 hPa 0,0 l/m 2,6 km/h O-NO 7,2 C 10,1 C 1,4 km/h
07.02.2017 12:00 9,5 C 74 % 1013,6 hPa 0,0 l/m 0,0 km/h NO 5,1 C 9,5 C 0,0 km/h
07.02.2017 13:00 9,3 C 73 % 1013,2 hPa 0,0 l/m 0,0 km/h W 4,7 C 9,3 C 0,0 km/h
07.02.2017 14:00 8,8 C 71 % 1012,7 hPa 0,0 l/m 0,0 km/h W 3,8 C 8,8 C 0,0 km/h
07.02.2017 15:00 6,9 C 77 % 1012,8 hPa 0,0 l/m 0,0 km/h W 3,2 C 6,9 C 0,0 km/h
07.02.2017 16:00 5,6 C 81 % 1013,3 hPa 0,0 l/m 0,0 km/h W 2,6 C 5,6 C 0,0 km/h
07.02.2017 17:00 5,2 C 83 % 1013,6 hPa 0,5 l/m 0,0 km/h W 2,6 C 5,2 C 0,0 km/h
07.02.2017 18:00 4,6 C 85 % 1013,7 hPa 0,0 l/m 0,0 km/h W 2,3 C 4,6 C 0,0 km/h
07.02.2017 19:00 4,3 C 86 % 1013,8 hPa 0,0 l/m 0,0 km/h S-SW 2,2 C 4,3 C 0,0 km/h
07.02.2017 20:00 4,2 C 86 % 1014,0 hPa 0,0 l/m 0,0 km/h S-SW 2,1 C 4,2 C 0,0 km/h
07.02.2017 21:00 4,1 C 86 % 1014,0 hPa 0,0 l/m 0,0 km/h S-SW 2,0 C 4,1 C 0,0 km/h
07.02.2017 22:00 3,9 C 86 % 1013,8 hPa 0,5 l/m 0,0 km/h S-SW 1,8 C 3,9 C 0,0 km/h
07.02.2017 23:00 3,9 C 86 % 1014,2 hPa 0,0 l/m 0,0 km/h S 1,8 C 3,9 C 0,0 km/h
08.02.2017 00:00 3,9 C 85 % 1014,2 hPa 0,0 l/m 0,0 km/h S 1,6 C 3,9 C 0,0 km/h
08.02.2017 01:00 3,8 C 85 % 1014,0 hPa 0,0 l/m 0,0 km/h S 1,5 C 3,8 C 0,0 km/h
08.02.2017 02:00 3,4 C 84 % 1013,9 hPa 0,0 l/m 0,0 km/h S 1,0 C 3,4 C 0,0 km/h
08.02.2017 03:00 3,4 C 84 % 1014,0 hPa 0,0 l/m 0,0 km/h S 1,0 C 3,4 C 0,0 km/h
08.02.2017 04:00 3,5 C 84 % 1013,8 hPa 0,0 l/m 0,0 km/h S-SO 1,1 C 3,5 C 0,0 km/h
08.02.2017 05:00 3,4 C 84 % 1014,0 hPa 0,0 l/m 0,0 km/h S 1,0 C 3,4 C 0,0 km/h
08.02.2017 06:00 3,0 C 84 % 1014,5 hPa 0,5 l/m 0,0 km/h S-SO 0,6 C 3,0 C 0,0 km/h
08.02.2017 07:00 2,9 C 84 % 1015,0 hPa 0,0 l/m 0,0 km/h S-SO 0,5 C 2,9 C 0,0 km/h
08.02.2017 08:00 3,0 C 84 % 1015,7 hPa 0,0 l/m 0,0 km/h S-SO 0,6 C 3,0 C 0,0 km/h
08.02.2017 09:00 4,8 C 83 % 1016,2 hPa 0,0 l/m 0,0 km/h S-SO 2,2 C 4,8 C 0,0 km/h
08.02.2017 10:00 6,8 C 85 % 1016,4 hPa 0,0 l/m 0,0 km/h NW 4,5 C 6,8 C 0,0 km/h
08.02.2017 11:00 6,4 C 86 % 1016,9 hPa 0,0 l/m 0,0 km/h W-NW 4,2 C 6,4 C 0,0 km/h
08.02.2017 12:00 6,9 C 85 % 1017,2 hPa 0,0 l/m 0,0 km/h W-NW 4,6 C 6,9 C 0,0 km/h
08.02.2017 13:00 7,4 C 84 % 1017,1 hPa 0,0 l/m 1,3 km/h W-NW 4,9 C 7,4 C 0,7 km/h
08.02.2017 14:00 6,4 C 84 % 1017,7 hPa 0,0 l/m 0,0 km/h W 3,9 C 6,4 C 0,0 km/h
08.02.2017 15:00 5,3 C 86 % 1017,9 hPa 0,0 l/m 0,0 km/h W 3,2 C 5,3 C 0,0 km/h
08.02.2017 16:00 5,3 C 86 % 1018,2 hPa 0,0 l/m 0,0 km/h W-SW 3,2 C 5,3 C 0,0 km/h
08.02.2017 17:00 5,1 C 86 % 1018,5 hPa 0,0 l/m 0,0 km/h W-SW 3,0 C 5,1 C 0,0 km/h
08.02.2017 18:00 4,4 C 87 % 1019,1 hPa 0,0 l/m 0,0 km/h W-SW 2,4 C 4,4 C 0,0 km/h
08.02.2017 19:00 3,9 C 86 % 1019,7 hPa 0,0 l/m 0,0 km/h W-SW 1,8 C 3,9 C 0,0 km/h
08.02.2017 20:00 3,3 C 87 % 1019,9 hPa 0,0 l/m 0,0 km/h W-SW 1,3 C 3,3 C 0,0 km/h
08.02.2017 21:00 2,9 C 86 % 1020,0 hPa 0,0 l/m 0,0 km/h W-SW 0,8 C 2,9 C 0,0 km/h
08.02.2017 22:00 2,1 C 86 % 1020,0 hPa 0,0 l/m 0,0 km/h W-SW 0,0 C 2,1 C 0,0 km/h
08.02.2017 23:00 1,3 C 86 % 1020,1 hPa 0,0 l/m 0,0 km/h W-SW -0,8 C 1,3 C 0,0 km/h
09.02.2017 00:00 0,5 C 87 % 1020,5 hPa 0,0 l/m 0,0 km/h W-SW -1,4 C 0,5 C 0,0 km/h
09.02.2017 01:00 -0,4 C 86 % 1020,5 hPa 0,0 l/m 0,0 km/h W-SW -2,4 C -0,4 C 0,0 km/h
09.02.2017 02:00 -0,9 C 86 % 1020,6 hPa 0,0 l/m 0,0 km/h W-SW -2,9 C -0,9 C 0,0 km/h
09.02.2017 03:00 -1,6 C 86 % 1020,4 hPa 0,0 l/m 0,0 km/h SW -3,6 C -1,6 C 0,0 km/h
09.02.2017 04:00 -1,8 C 85 % 1020,5 hPa 0,0 l/m 0,0 km/h SW -4,0 C -1,8 C 0,0 km/h
09.02.2017 05:00 -2,7 C 86 % 1020,3 hPa 0,0 l/m 0,0 km/h SW -4,7 C -2,7 C 0,0 km/h
09.02.2017 06:00 -2,1 C 86 % 1020,4 hPa 0,0 l/m 0,0 km/h SW -4,1 C -2,1 C 0,0 km/h
09.02.2017 07:00 -2,7 C 86 % 1020,6 hPa 0,0 l/m 0,0 km/h SW -4,7 C -2,7 C 0,0 km/h
09.02.2017 08:00 -2,8 C 85 % 1020,5 hPa 0,0 l/m 0,0 km/h W-NW -5,0 C -2,8 C 0,0 km/h
09.02.2017 09:00 -0,7 C 83 % 1020,3 hPa 0,0 l/m 0,0 km/h W-SW -3,2 C -0,7 C 0,0 km/h
09.02.2017 10:00 4,3 C 86 % 1019,9 hPa 0,0 l/m 0,0 km/h W-SW 2,2 C 4,3 C 0,0 km/h
09.02.2017 11:00 8,4 C 72 % 1019,4 hPa 0,0 l/m 0,0 km/h N 3,7 C 8,4 C 0,0 km/h
09.02.2017 12:00 10,4 C 57 % 1018,7 hPa 0,0 l/m 0,0 km/h N-NO 2,3 C 10,4 C 0,0 km/h
09.02.2017 13:00 7,9 C 56 % 1018,3 hPa 0,0 l/m 0,0 km/h N -0,3 C 7,9 C 0,0 km/h
09.02.2017 14:00 7,3 C 60 % 1017,7 hPa 0,0 l/m 5,2 km/h SO 0,1 C 7,3 C 2,9 km/h
09.02.2017 15:00 4,8 C 66 % 1018,1 hPa 0,0 l/m 10,4 km/h N-NO -1,0 C 1,6 C 5,8 km/h
09.02.2017 16:00 4,1 C 69 % 1017,8 hPa 0,0 l/m 0,0 km/h NO -1,1 C 4,1 C 0,0 km/h
09.02.2017 17:00 2,9 C 71 % 1017,8 hPa 0,0 l/m 0,0 km/h O-SO -1,8 C 2,9 C 0,0 km/h
09.02.2017 18:00 2,4 C 73 % 1018,1 hPa 0,0 l/m 0,0 km/h O-SO -1,9 C 2,4 C 0,0 km/h
09.02.2017 19:00 2,2 C 74 % 1018,1 hPa 0,0 l/m 13,6 km/h O-SO -1,9 C -3,5 C 7,6 km/h
09.02.2017 20:00 1,9 C 74 % 1017,9 hPa 0,0 l/m 7,8 km/h O-NO -2,2 C 0,5 C 4,3 km/h
09.02.2017 21:00 1,8 C 75 % 1017,6 hPa 0,0 l/m 0,0 km/h O-SO -2,1 C 1,8 C 0,0 km/h
09.02.2017 22:00 1,8 C 75 % 1017,1 hPa 0,0 l/m 0,0 km/h O -2,1 C 1,8 C 0,0 km/h
09.02.2017 23:00 1,5 C 76 % 1017,1 hPa 0,0 l/m 0,0 km/h O -2,3 C 1,5 C 0,0 km/h
10.02.2017 00:00 1,4 C 77 % 1016,8 hPa 0,0 l/m 0,0 km/h O -2,2 C 1,4 C 0,0 km/h
10.02.2017 01:00 1,4 C 77 % 1016,5 hPa 0,0 l/m 0,0 km/h O -2,2 C 1,4 C 0,0 km/h
10.02.2017 02:00 1,0 C 78 % 1016,5 hPa 0,0 l/m 0,0 km/h O-NO -2,4 C 1,0 C 0,0 km/h
10.02.2017 03:00 1,0 C 79 % 1016,3 hPa 0,0 l/m 0,0 km/h O-NO -2,2 C 1,0 C 0,0 km/h
10.02.2017 04:00 0,1 C 80 % 1015,7 hPa 0,0 l/m 0,0 km/h O-NO -2,9 C 0,1 C 0,0 km/h
10.02.2017 05:00 0,1 C 81 % 1015,6 hPa 0,0 l/m 0,0 km/h O -2,8 C 0,1 C 0,0 km/h
10.02.2017 06:00 -0,1 C 81 % 1015,7 hPa 0,0 l/m 0,0 km/h O-NO -3,0 C -0,1 C 0,0 km/h
10.02.2017 07:00 -0,6 C 84 % 1015,6 hPa 0,0 l/m 0,0 km/h O-NO -3,0 C -0,6 C 0,0 km/h
10.02.2017 08:00 -0,7 C 85 % 1016,3 hPa 0,0 l/m 0,0 km/h O -2,9 C -0,7 C 0,0 km/h
10.02.2017 09:00 0,4 C 85 % 1016,6 hPa 0,0 l/m 0,0 km/h O-NO -1,8 C 0,4 C 0,0 km/h
10.02.2017 10:00 1,2 C 85 % 1017,0 hPa 0,0 l/m 0,0 km/h O-NO -1,0 C 1,2 C 0,0 km/h
10.02.2017 11:00 2,3 C 83 % 1017,1 hPa 0,0 l/m 0,0 km/h W-NW -0,3 C 2,3 C 0,0 km/h
10.02.2017 12:00 2,1 C 82 % 1017,1 hPa 0,0 l/m 0,0 km/h W-NW -0,6 C 2,1 C 0,0 km/h
10.02.2017 13:00 2,0 C 83 % 1016,7 hPa 0,0 l/m 0,0 km/h NW -0,6 C 2,0 C 0,0 km/h
10.02.2017 14:00 1,8 C 86 % 1016,7 hPa 0,0 l/m 0,0 km/h W-NW -0,3 C 1,8 C 0,0 km/h
10.02.2017 15:00 2,6 C 85 % 1016,4 hPa 0,0 l/m 0,0 km/h W-NW 0,3 C 2,6 C 0,0 km/h
10.02.2017 16:00 2,8 C 84 % 1016,2 hPa 0,0 l/m 0,0 km/h W-NW 0,4 C 2,8 C 0,0 km/h
10.02.2017 17:00 2,1 C 85 % 1016,1 hPa 0,0 l/m 0,0 km/h W-NW -0,2 C 2,1 C 0,0 km/h
10.02.2017 18:00 1,8 C 86 % 1016,3 hPa 0,0 l/m 0,0 km/h W-NW -0,3 C 1,8 C 0,0 km/h
10.02.2017 19:00 1,6 C 86 % 1016,2 hPa 0,0 l/m 0,0 km/h W-NW -0,5 C 1,6 C 0,0 km/h
10.02.2017 20:00 1,6 C 86 % 1016,2 hPa 0,0 l/m 0,0 km/h W-NW -0,5 C 1,6 C 0,0 km/h
10.02.2017 21:00 0,8 C 87 % 1016,1 hPa 0,0 l/m 0,0 km/h W-NW -1,1 C 0,8 C 0,0 km/h
10.02.2017 22:00 0,6 C 87 % 1016,2 hPa 0,0 l/m 0,0 km/h W-NW -1,3 C 0,6 C 0,0 km/h
10.02.2017 23:00 1,0 C 87 % 1016,2 hPa 0,0 l/m 0,0 km/h W-NW -0,9 C 1,0 C 0,0 km/h
11.02.2017 00:00 0,8 C 87 % 1016,1 hPa 0,0 l/m 0,0 km/h W-NW -1,1 C 0,8 C 0,0 km/h
11.02.2017 01:00 0,5 C 86 % 1016,0 hPa 0,0 l/m 0,0 km/h W -1,6 C 0,5 C 0,0 km/h
11.02.2017 02:00 0,3 C 86 % 1016,1 hPa 0,0 l/m 0,0 km/h SO -1,8 C 0,3 C 0,0 km/h
11.02.2017 03:00 0,1 C 86 % 1016,0 hPa 0,0 l/m 0,0 km/h O-SO -2,0 C 0,1 C 0,0 km/h
11.02.2017 04:00 -0,1 C 86 % 1015,6 hPa 0,0 l/m 0,0 km/h O-SO -2,2 C -0,1 C 0,0 km/h
11.02.2017 05:00 -0,5 C 86 % 1015,7 hPa 0,0 l/m 0,0 km/h O-SO -2,5 C -0,5 C 0,0 km/h
11.02.2017 06:00 -0,1 C 85 % 1015,5 hPa 0,0 l/m 0,0 km/h N-NO -2,3 C -0,1 C 0,0 km/h
11.02.2017 07:00 -0,1 C 84 % 1015,6 hPa 0,0 l/m 0,0 km/h N-NO -2,5 C -0,1 C 0,0 km/h
11.02.2017 08:00 0,2 C 84 % 1016,0 hPa 0,0 l/m 0,0 km/h N-NO -2,2 C 0,2 C 0,0 km/h
11.02.2017 09:00 0,9 C 84 % 1016,2 hPa 0,0 l/m 0,0 km/h N-NO -1,5 C 0,9 C 0,0 km/h
11.02.2017 10:00 3,0 C 83 % 1016,3 hPa 0,0 l/m 0,0 km/h W-SW 0,4 C 3,0 C 0,0 km/h
11.02.2017 11:00 11,2 C 76 % 1016,1 hPa 0,0 l/m 0,0 km/h W 7,1 C 11,2 C 0,0 km/h
11.02.2017 12:00 11,8 C 64 % 1015,9 hPa 0,0 l/m 0,0 km/h W-NW 5,2 C 11,8 C 0,0 km/h
11.02.2017 13:00 8,3 C 72 % 1015,6 hPa 0,0 l/m 0,0 km/h W-NW 3,6 C 8,3 C 0,0 km/h
11.02.2017 14:00 8,4 C 71 % 1014,5 hPa 0,0 l/m 0,0 km/h W-NW 3,5 C 8,4 C 0,0 km/h
11.02.2017 15:00 7,2 C 75 % 1014,7 hPa 0,0 l/m 0,0 km/h W 3,1 C 7,2 C 0,0 km/h
11.02.2017 16:00 5,2 C 79 % 1015,0 hPa 0,0 l/m 0,0 km/h NO 1,9 C 5,2 C 0,0 km/h
11.02.2017 17:00 4,1 C 84 % 1014,7 hPa 0,5 l/m 0,0 km/h N-NW 1,6 C 4,1 C 0,0 km/h
11.02.2017 18:00 4,1 C 85 % 1015,2 hPa 0,0 l/m 0,0 km/h NW 1,8 C 4,1 C 0,0 km/h
11.02.2017 19:00 2,8 C 86 % 1015,5 hPa 0,0 l/m 0,0 km/h NW 0,7 C 2,8 C 0,0 km/h
11.02.2017 20:00 2,4 C 86 % 1015,4 hPa 0,0 l/m 0,0 km/h W-NW 0,3 C 2,4 C 0,0 km/h
11.02.2017 21:00 2,5 C 86 % 1015,7 hPa 0,0 l/m 0,0 km/h NW 0,4 C 2,5 C 0,0 km/h
11.02.2017 22:00 2,4 C 86 % 1015,7 hPa 0,0 l/m 0,0 km/h W-NW 0,3 C 2,4 C 0,0 km/h
11.02.2017 23:00 2,3 C 85 % 1016,5 hPa 0,0 l/m 0,0 km/h N 0,0 C 2,3 C 0,0 km/h
12.02.2017 00:00 2,3 C 84 % 1016,7 hPa 0,0 l/m 11,0 km/h N-NO -0,1 C -1,7 C 6,1 km/h
12.02.2017 01:00 2,5 C 84 % 1016,3 hPa 0,0 l/m 0,0 km/h NW 0,1 C 2,5 C 0,0 km/h
12.02.2017 02:00 1,7 C 84 % 1017,0 hPa 0,0 l/m 0,0 km/h W-NW -0,7 C 1,7 C 0,0 km/h
12.02.2017 03:00 1,8 C 83 % 1017,7 hPa 0,0 l/m 0,0 km/h W-NW -0,8 C 1,8 C 0,0 km/h
12.02.2017 04:00 2,0 C 83 % 1017,8 hPa 0,0 l/m 0,0 km/h SO -0,6 C 2,0 C 0,0 km/h
12.02.2017 05:00 2,4 C 81 % 1017,3 hPa 0,0 l/m 0,0 km/h W -0,5 C 2,4 C 0,0 km/h
12.02.2017 06:00 2,2 C 82 % 1018,3 hPa 0,0 l/m 0,0 km/h W -0,5 C 2,2 C 0,0 km/h
12.02.2017 07:00 2,3 C 81 % 1018,8 hPa 0,0 l/m 0,0 km/h W -0,6 C 2,3 C 0,0 km/h
12.02.2017 08:00 2,4 C 81 % 1019,7 hPa 0,0 l/m 0,0 km/h W-NW -0,5 C 2,4 C 0,0 km/h
12.02.2017 09:00 2,9 C 80 % 1019,9 hPa 0,0 l/m 0,0 km/h O-SO -0,2 C 2,9 C 0,0 km/h
12.02.2017 10:00 5,3 C 78 % 1020,2 hPa 0,0 l/m 0,0 km/h W-NW 1,8 C 5,3 C 0,0 km/h
12.02.2017 11:00 5,4 C 86 % 1020,7 hPa 0,0 l/m 0,0 km/h NW 3,3 C 5,4 C 0,0 km/h
12.02.2017 12:00 5,6 C 86 % 1020,6 hPa 0,0 l/m 0,0 km/h W 3,4 C 5,6 C 0,0 km/h
12.02.2017 13:00 6,6 C 85 % 1020,2 hPa 0,0 l/m 0,0 km/h W 4,3 C 6,6 C 0,0 km/h
12.02.2017 14:00 6,1 C 85 % 1019,9 hPa 0,0 l/m 0,0 km/h W-NW 3,8 C 6,1 C 0,0 km/h
12.02.2017 15:00 4,9 C 86 % 1020,5 hPa 0,0 l/m 0,0 km/h N 2,8 C 4,9 C 0,0 km/h
12.02.2017 16:00 4,4 C 86 % 1020,7 hPa 0,0 l/m 0,0 km/h N 2,3 C 4,4 C 0,0 km/h
12.02.2017 17:00 4,3 C 86 % 1020,9 hPa 0,0 l/m 0,0 km/h SO 2,2 C 4,3 C 0,0 km/h
12.02.2017 18:00 3,8 C 86 % 1020,9 hPa 0,0 l/m 0,0 km/h SO 1,7 C 3,8 C 0,0 km/h
12.02.2017 19:00 3,6 C 86 % 1021,1 hPa 0,0 l/m 0,0 km/h W 1,5 C 3,6 C 0,0 km/h
12.02.2017 20:00 3,8 C 85 % 1021,4 hPa 0,0 l/m 0,0 km/h W 1,5 C 3,8 C 0,0 km/h
12.02.2017 21:00 2,9 C 86 % 1021,8 hPa 0,0 l/m 0,0 km/h SW 0,8 C 2,9 C 0,0 km/h
12.02.2017 22:00 2,2 C 86 % 1021,9 hPa 0,0 l/m 0,0 km/h SW 0,1 C 2,2 C 0,0 km/h
12.02.2017 23:00 2,1 C 86 % 1022,1 hPa 0,0 l/m 0,0 km/h W-SW 0,0 C 2,1 C 0,0 km/h
Min-Datum _ 09.02.17 09.02.17 06.02.17 - 06.02.17 - 09.02.17 09.02.17 06.02.17
_ Min-Zeit 08:10 13:10 00:10 - 00:10 - 08:10 19:10 00:10
Minimum _ -2,8 C 56 % 1003,8 hPa - 0,0 km/h - -5,0 C -3,5 C 0,0 km/h
Max-Datum _ 11.02.17 08.02.17 12.02.17 06.02.17 09.02.17 - 07.02.17 11.02.17 09.02.17
_ Max-Zeit 12:10 18:10 23:10 01:10 19:10 - 11:10 12:10 19:10
Maximum _ 11,8 C 87 % 1022,1 hPa 1,0 l/m 13,6 km/h
O-SO
- 7,2 C 11,8 C 7,6 km/h
O-SO
Durchschnitt _ 3,3 C 82 % 1016,3 hPa #4,7 l/m 0,3 km/h W-NW 0,5 C 3,2 C 0,2 km/h
www.sexauwetter.de